Terminal Aerodrome Forecast
Issued by NWS Knoxville/Tri Cities, TN

Home | Current Version | Previous Version | Text Only | Print | Product List | Glossary On
Versions: 1 2 3 4 5 6 7 8 9 10 11 12 13 14 15 16 17 18 19 20 21 22 23 24 25 26 27 28 29 30 31 32 33
000
FTUS44 KMRX 270530
TAFTYS
TAF
KTYS 270530Z 2706/2806 24005KT P6SM OVC035
      TEMPO 2706/2710 5SM -SHSN OVC025
     FM271000 24004KT P6SM -SHSN OVC015
     FM271500 35004KT P6SM OVC025
     FM271800 34008KT P6SM BKN040
     FM280200 35005KT P6SM SCT035=

USA.gov is the U.S. government's official web portal to all federal, state and local government web resources and services.